首页
METAR-TAF:

METAR-TAF

机场 :

黑兹尔顿, 宾夕法尼亚州, 美国

纬度: 40-59-12N, 经度: 075-59-42W, 海拔: 489米

当前天气观测

该预报发布于17分钟前的07:16 UTC
风速5节,风向北转西北
温度 17°C
湿度 94%
气压 1011 hPa
能見度: 16.1公里
阴天层高于300英尺
小雨

METAR: KHZL 230716Z AUTO 33005KT 10SM -RA OVC003 17/16 A2985 RMK AO2

时间: 03:33 (07:33 UTC)


TAF: 丢失

超过4000个机场的气象观测和天气预报(METAR&TAF报告)。

可查询的气象台以黄色和红色小点在地图上表示。

将鼠标移到小点上方,可查看气象台名称。

然后点击查看天气观测和预报。

如需切换地图:点击带黑十字的绿色按钮放大地图;点击带横线的绿色按钮缩小地图;或者点击绿色箭头查看邻近地区的地图。


METAR-TAF: